createdAt,value
2023-02-04T00:00:54.976Z,36.20
2023-02-04T00:01:54.961Z,37.17
2023-02-04T00:03:26.578Z,36.09
2023-02-04T00:04:06.297Z,36.31
2023-02-04T00:04:54.936Z,37.17
2023-02-04T00:05:54.972Z,38.24
2023-02-04T00:06:55.869Z,38.78
2023-02-04T00:07:54.924Z,38.67
2023-02-04T00:08:55.327Z,38.89
2023-02-04T00:09:55.242Z,38.56
2023-02-04T00:10:56.142Z,39.53
2023-02-04T00:11:54.832Z,38.56
2023-02-04T00:12:54.818Z,39.64
2023-02-04T00:13:55.458Z,39.42
2023-02-04T00:14:55.423Z,40.07
2023-02-04T00:15:54.814Z,39.85
2023-02-04T00:16:54.806Z,39.53
2023-02-04T00:18:44.858Z,38.35
2023-02-04T00:29:22.151Z,38.78
2023-02-04T00:29:35.490Z,38.67
2023-02-04T00:30:30.179Z,38.78
2023-02-04T00:31:26.981Z,38.46
2023-02-04T00:32:28.714Z,38.46
2023-02-04T00:33:43.731Z,38.56
2023-02-04T00:34:31.276Z,38.78
2023-02-04T00:35:31.256Z,39.32
2023-02-04T00:36:39.983Z,38.67
2023-02-04T00:37:46.433Z,39.21
2023-02-04T00:39:05.690Z,37.92
2023-02-04T00:39:38.240Z,39.32
2023-02-04T00:40:26.789Z,38.35
2023-02-04T00:41:29.354Z,38.78
2023-02-04T00:42:28.281Z,38.78
2023-02-04T00:43:32.424Z,39.21
2023-02-04T00:44:27.245Z,39.10
2023-02-04T00:45:28.778Z,39.75
2023-02-04T00:46:27.157Z,38.67
2023-02-04T00:47:28.151Z,37.71
2023-02-04T00:48:31.739Z,38.67
2023-02-04T00:49:42.560Z,38.56
2023-02-04T00:50:26.657Z,38.99
2023-02-04T00:51:30.076Z,38.46
2023-02-04T00:52:27.477Z,38.89
2023-02-04T00:53:26.623Z,38.46
2023-02-04T00:54:26.600Z,38.78
2023-02-04T00:55:26.598Z,39.32
2023-02-04T00:56:26.583Z,39.21
2023-02-04T00:57:26.561Z,38.89
2023-02-04T00:58:26.551Z,38.99
2023-02-04T00:59:26.529Z,38.67
2023-02-04T01:00:26.530Z,38.56
2023-02-04T01:01:26.772Z,39.32
2023-02-04T01:02:26.525Z,39.10
2023-02-04T01:03:26.510Z,38.78
2023-02-04T01:04:26.507Z,38.89
2023-02-04T01:05:26.470Z,38.89
2023-02-04T01:06:26.465Z,38.67
2023-02-04T01:07:26.453Z,38.56
2023-02-04T01:08:26.430Z,38.89
2023-02-04T01:09:26.413Z,38.78
2023-02-04T01:10:26.403Z,37.71
2023-02-04T01:11:26.388Z,38.78
2023-02-04T01:12:26.374Z,37.92
2023-02-04T01:13:27.856Z,37.92
2023-02-04T01:14:26.356Z,37.60
2023-02-04T01:15:26.336Z,38.35
2023-02-04T01:16:26.371Z,38.67
2023-02-04T01:17:26.323Z,37.49
2023-02-04T01:18:26.296Z,38.67
2023-02-04T01:19:26.278Z,38.46
2023-02-04T01:20:26.276Z,38.13
2023-02-04T01:21:26.272Z,38.35
2023-02-04T01:22:26.508Z,38.03
2023-02-04T01:23:26.228Z,37.49
2023-02-04T01:24:26.221Z,37.92
2023-02-04T01:25:26.208Z,37.81
2023-02-04T01:26:26.198Z,37.28
2023-02-04T01:27:26.179Z,37.92
2023-02-04T01:28:26.176Z,38.46
2023-02-04T01:29:26.157Z,37.49
2023-02-04T01:30:26.164Z,37.92
2023-02-04T01:31:26.172Z,37.60
2023-02-04T01:32:26.129Z,37.92
2023-02-04T01:33:26.120Z,38.67
2023-02-04T01:34:26.113Z,37.71
2023-02-04T01:35:26.093Z,37.71
2023-02-04T01:36:26.074Z,37.92
2023-02-04T01:37:26.053Z,37.17
2023-02-04T01:38:26.048Z,36.95
2023-02-04T01:39:26.030Z,37.81
2023-02-04T01:40:26.032Z,38.03
2023-02-04T01:41:26.002Z,37.17
2023-02-04T01:42:26.017Z,37.28
2023-02-04T01:43:25.972Z,36.85
2023-02-04T01:44:26.139Z,37.71
2023-02-04T01:45:25.952Z,37.28
2023-02-04T01:46:25.941Z,38.46
2023-02-04T01:47:26.173Z,36.95
2023-02-04T01:48:25.929Z,36.95
2023-02-04T01:49:26.211Z,37.60
2023-02-04T01:50:25.906Z,37.49
2023-02-04T01:51:25.871Z,37.06
2023-02-04T01:52:25.862Z,37.92
2023-02-04T01:53:25.846Z,37.92
2023-02-04T01:54:25.833Z,37.71
2023-02-04T01:55:25.826Z,37.60
2023-02-04T01:56:25.803Z,37.28
2023-02-04T01:57:25.797Z,36.95
2023-02-04T01:58:25.790Z,37.71
2023-02-04T01:59:25.763Z,37.71
2023-02-04T02:00:25.767Z,37.49
2023-02-04T02:01:25.770Z,38.13
2023-02-04T02:02:25.777Z,38.13
2023-02-04T02:03:25.745Z,37.38
2023-02-04T02:04:25.734Z,37.71
2023-02-04T02:05:25.701Z,38.13
2023-02-04T02:06:25.691Z,37.28
2023-02-04T02:07:25.667Z,38.35
2023-02-04T02:08:25.665Z,36.95
2023-02-04T02:09:25.635Z,37.71
2023-02-04T02:10:25.643Z,37.71
2023-02-04T02:11:25.616Z,38.89
2023-02-04T02:12:25.606Z,37.71
2023-02-04T02:13:25.589Z,37.81
2023-02-04T02:14:25.615Z,37.06
2023-02-04T02:15:25.606Z,37.71
2023-02-04T02:16:25.612Z,36.95
2023-02-04T02:17:25.537Z,37.71
2023-02-04T02:18:25.540Z,36.95
2023-02-04T02:19:25.524Z,37.71
2023-02-04T02:20:25.572Z,37.49
2023-02-04T02:21:25.486Z,37.28
2023-02-04T02:22:25.486Z,36.85
2023-02-04T02:23:25.487Z,37.06
2023-02-04T02:24:25.467Z,37.71
2023-02-04T02:25:25.457Z,37.81
2023-02-04T02:26:25.426Z,37.17
2023-02-04T02:27:25.422Z,37.28
2023-02-04T02:28:25.418Z,36.95
2023-02-04T02:29:25.389Z,37.49
2023-02-04T02:30:25.400Z,36.31
2023-02-04T02:31:25.478Z,37.17
2023-02-04T02:32:26.590Z,36.31
2023-02-04T02:33:25.350Z,37.06
2023-02-04T02:34:25.328Z,36.85
2023-02-04T02:35:25.329Z,37.38
2023-02-04T02:36:25.314Z,36.95
2023-02-04T02:37:25.297Z,36.63
2023-02-04T02:38:25.281Z,37.28
2023-02-04T02:39:25.273Z,38.67
2023-02-04T02:40:25.270Z,38.67
2023-02-04T02:41:26.204Z,36.95
2023-02-04T02:42:25.239Z,38.13
2023-02-04T02:43:25.221Z,37.17
2023-02-04T02:44:25.217Z,37.38
2023-02-04T02:45:25.210Z,37.49
2023-02-04T02:46:25.258Z,37.06
2023-02-04T02:47:25.174Z,37.81
2023-02-04T02:48:25.158Z,37.49
2023-02-04T02:49:25.146Z,38.03
2023-02-04T02:50:25.145Z,37.60
2023-02-04T02:51:25.121Z,38.78
2023-02-04T02:52:25.125Z,37.06
2023-02-04T02:53:25.097Z,37.71
2023-02-04T02:54:25.084Z,37.81
2023-02-04T02:55:25.080Z,37.60
2023-02-04T02:56:25.077Z,36.95
2023-02-04T02:57:25.044Z,37.06
2023-02-04T02:58:25.027Z,37.49
2023-02-04T02:59:25.016Z,37.38
2023-02-04T03:00:25.006Z,36.52
2023-02-04T03:01:25.092Z,37.60
2023-02-04T03:02:25.032Z,37.49
2023-02-04T03:03:24.977Z,37.38
2023-02-04T03:04:24.971Z,37.38
2023-02-04T03:05:24.928Z,37.17
2023-02-04T03:06:24.929Z,37.38
2023-02-04T03:07:24.905Z,36.31
2023-02-04T03:08:24.912Z,37.38
2023-02-04T03:09:24.886Z,36.95
2023-02-04T03:10:24.863Z,37.49
2023-02-04T03:11:24.867Z,38.03
2023-02-04T03:12:24.849Z,36.95
2023-02-04T03:13:24.840Z,36.85
2023-02-04T03:14:24.847Z,36.63
2023-02-04T03:15:24.838Z,37.06
2023-02-04T03:16:24.798Z,37.81
2023-02-04T03:17:24.780Z,37.28
2023-02-04T03:18:24.768Z,37.06
2023-02-04T03:19:24.748Z,37.38
2023-02-04T03:20:24.818Z,37.06
2023-02-04T03:21:24.741Z,36.31
2023-02-04T03:22:24.731Z,37.28
2023-02-04T03:23:24.694Z,36.31
2023-02-04T03:24:24.709Z,36.09
2023-02-04T03:25:24.695Z,35.99
2023-02-04T03:26:24.747Z,36.20
2023-02-04T03:27:24.644Z,37.28
2023-02-04T03:28:24.642Z,36.31
2023-02-04T03:29:24.628Z,35.88
2023-02-04T03:30:24.632Z,36.52
2023-02-04T03:31:24.716Z,37.06
2023-02-04T03:32:24.596Z,36.52
2023-02-04T03:33:24.575Z,35.13
2023-02-04T03:34:24.572Z,36.42
2023-02-04T03:35:24.551Z,36.09
2023-02-04T03:36:24.560Z,36.09
2023-02-04T03:37:24.544Z,35.99
2023-02-04T03:38:24.529Z,36.31
2023-02-04T03:39:24.497Z,35.88
2023-02-04T03:40:24.497Z,35.23
2023-02-04T03:41:24.489Z,36.09
2023-02-04T03:42:24.468Z,35.13
2023-02-04T03:43:24.448Z,35.99
2023-02-04T03:44:24.439Z,35.13
2023-02-04T03:45:24.947Z,35.88
2023-02-04T03:46:24.459Z,36.20
2023-02-04T03:47:24.411Z,36.20
2023-02-04T03:48:24.404Z,35.77
2023-02-04T03:49:24.378Z,35.23
2023-02-04T03:50:24.381Z,35.02
2023-02-04T03:51:24.359Z,35.13
2023-02-04T03:52:24.364Z,35.23
2023-02-04T03:53:24.322Z,36.52
2023-02-04T03:54:24.315Z,35.02
2023-02-04T03:55:24.324Z,36.42
2023-02-04T03:56:24.290Z,35.34
2023-02-04T03:57:24.283Z,35.02
2023-02-04T03:58:24.255Z,36.09
2023-02-04T03:59:24.259Z,35.77
2023-02-04T04:00:24.501Z,35.23
2023-02-04T04:01:24.252Z,36.20
2023-02-04T04:02:24.234Z,36.31
2023-02-04T04:03:24.203Z,35.88
2023-02-04T04:04:24.193Z,36.20
2023-02-04T04:05:24.176Z,36.20
2023-02-04T04:06:24.194Z,35.02
2023-02-04T04:07:24.177Z,36.09
2023-02-04T04:08:24.140Z,35.34
2023-02-04T04:09:24.137Z,36.63
2023-02-04T04:10:24.112Z,36.31
2023-02-04T04:11:25.064Z,35.99
2023-02-04T04:12:24.098Z,36.31
2023-02-04T04:13:24.077Z,35.77
2023-02-04T04:14:24.064Z,35.34
2023-02-04T04:17:37.823Z,35.23
2023-02-04T04:17:42.590Z,36.20
2023-02-04T04:18:42.574Z,34.91
2023-02-04T04:19:42.556Z,35.23
2023-02-04T04:20:42.551Z,36.31
2023-02-04T04:21:42.538Z,36.20
2023-02-04T04:22:46.100Z,36.09
2023-02-04T04:23:42.520Z,36.09
2023-02-04T04:24:42.498Z,36.20
2023-02-04T04:26:24.969Z,36.09
2023-02-04T04:26:43.440Z,35.02
2023-02-04T04:27:42.498Z,36.31
2023-02-04T04:28:42.445Z,35.13
2023-02-04T04:29:42.432Z,35.88
2023-02-04T04:30:42.453Z,35.88
2023-02-04T04:33:28.187Z,36.20
2023-02-04T04:33:32.953Z,35.02
2023-02-04T04:34:41.122Z,35.99
2023-02-04T04:38:33.484Z,35.23
2023-02-04T04:38:50.412Z,34.80
2023-02-04T04:39:38.244Z,35.77
2023-02-04T04:40:38.224Z,35.77
2023-02-04T04:41:38.212Z,34.91
2023-02-04T04:42:38.208Z,35.13
2023-02-04T04:43:38.197Z,35.88
2023-02-04T04:44:38.199Z,34.70
2023-02-04T04:45:38.186Z,35.34
2023-02-04T04:46:38.202Z,35.13
2023-02-04T04:48:09.170Z,35.99
2023-02-04T04:48:42.765Z,35.99
2023-02-04T04:49:38.128Z,35.13
2023-02-04T04:50:38.108Z,34.59
2023-02-04T04:51:38.095Z,36.09
2023-02-04T04:52:41.371Z,35.77
2023-02-04T04:53:38.086Z,35.77
2023-02-04T04:54:38.065Z,34.91
2023-02-04T04:55:38.048Z,35.77
2023-02-04T04:56:38.029Z,35.56
2023-02-04T04:57:41.007Z,36.20
2023-02-04T04:58:38.017Z,34.70
2023-02-04T04:59:52.434Z,36.09
2023-02-04T05:00:38.525Z,36.52
2023-02-04T05:01:37.974Z,35.13
2023-02-04T05:02:37.964Z,35.34
2023-02-04T05:04:16.991Z,36.20
2023-02-04T05:04:37.964Z,35.45
2023-02-04T05:05:37.924Z,35.45
2023-02-04T05:06:37.918Z,35.13
2023-02-04T05:07:38.138Z,34.91
2023-02-04T05:08:38.137Z,36.20
2023-02-04T05:09:40.519Z,35.02
2023-02-04T05:10:45.720Z,35.77
2023-02-04T05:11:39.570Z,35.99
2023-02-04T05:12:37.840Z,35.34
2023-02-04T05:13:37.822Z,36.09
2023-02-04T05:14:37.821Z,35.34
2023-02-04T05:15:37.805Z,34.59
2023-02-04T05:16:37.881Z,35.99
2023-02-04T05:17:37.791Z,36.20
2023-02-04T05:18:37.768Z,35.99
2023-02-04T05:19:37.762Z,36.20
2023-02-04T05:20:37.980Z,35.02
2023-02-04T05:21:38.061Z,36.31
2023-02-04T05:22:37.718Z,35.88
2023-02-04T05:23:38.065Z,35.99
2023-02-04T05:24:37.684Z,35.88
2023-02-04T05:25:37.676Z,36.20
2023-02-04T05:26:37.668Z,35.13
2023-02-04T05:27:37.660Z,35.66
2023-02-04T05:28:37.644Z,35.02
2023-02-04T05:29:37.628Z,35.23
2023-02-04T05:30:37.646Z,35.66
2023-02-04T05:31:37.662Z,36.31
2023-02-04T05:32:37.594Z,36.31
2023-02-04T05:33:37.595Z,34.91
2023-02-04T05:34:39.720Z,34.70
2023-02-04T05:35:37.571Z,35.13
2023-02-04T05:36:37.814Z,34.80
2023-02-04T05:37:37.532Z,35.02
2023-02-04T05:38:37.533Z,36.20
2023-02-04T05:39:37.520Z,35.77
2023-02-04T05:40:37.501Z,35.88
2023-02-04T05:41:37.484Z,36.31
2023-02-04T05:42:37.475Z,35.34
2023-02-04T05:43:37.479Z,36.09
2023-02-04T05:44:37.434Z,35.88
2023-02-04T05:45:37.431Z,35.02
2023-02-04T05:46:37.416Z,34.70
2023-02-04T05:47:37.454Z,35.99
2023-02-04T05:48:37.406Z,35.88
2023-02-04T05:49:37.416Z,36.09
2023-02-04T05:50:37.707Z,35.13
2023-02-04T05:51:37.361Z,36.52
2023-02-04T05:52:43.526Z,35.99
2023-02-04T05:56:49.017Z,35.34
2023-02-04T05:56:55.725Z,35.77
2023-02-04T05:57:53.768Z,36.52
2023-02-04T05:58:53.776Z,35.99
2023-02-04T05:59:54.705Z,34.91
2023-02-04T06:00:53.735Z,35.02
2023-02-04T06:01:53.735Z,35.66
2023-02-04T06:02:53.744Z,35.02
2023-02-04T06:03:53.726Z,36.42
2023-02-04T06:04:53.684Z,34.80
2023-02-04T06:05:53.676Z,36.20
2023-02-04T06:06:53.662Z,36.31
2023-02-04T06:07:55.607Z,35.23
2023-02-04T06:08:53.658Z,34.70
2023-02-04T06:09:53.627Z,34.59
2023-02-04T06:10:53.610Z,35.13
2023-02-04T06:11:54.547Z,35.99
2023-02-04T06:12:53.593Z,34.70
2023-02-04T06:13:54.767Z,35.88
2023-02-04T06:14:54.521Z,35.88
2023-02-04T06:15:54.507Z,34.70
2023-02-04T06:16:53.583Z,34.70
2023-02-04T06:17:53.539Z,34.59
2023-02-04T06:18:53.519Z,35.88
2023-02-04T06:19:53.497Z,34.80
2023-02-04T06:20:53.477Z,36.09
2023-02-04T06:21:53.468Z,34.91
2023-02-04T06:22:53.468Z,35.13
2023-02-04T06:23:53.469Z,35.02
2023-02-04T06:24:53.439Z,35.88
2023-02-04T06:25:54.383Z,35.02
2023-02-04T06:26:53.408Z,36.63
2023-02-04T06:27:53.451Z,36.20
2023-02-04T06:28:54.177Z,35.66
2023-02-04T06:29:53.386Z,36.09
2023-02-04T06:30:53.456Z,35.88
2023-02-04T06:31:54.420Z,35.77
2023-02-04T06:32:53.341Z,34.59
2023-02-04T06:33:53.340Z,35.88
2023-02-04T06:34:53.315Z,36.20
2023-02-04T06:35:53.314Z,34.80
2023-02-04T06:36:53.281Z,35.23
2023-02-04T06:37:53.296Z,35.66
2023-02-04T06:38:53.269Z,34.59
2023-02-04T06:39:53.251Z,35.23
2023-02-04T06:40:54.206Z,35.13
2023-02-04T06:41:53.241Z,35.13
2023-02-04T06:42:53.211Z,34.70
2023-02-04T06:43:54.175Z,35.99
2023-02-04T06:44:53.181Z,35.02
2023-02-04T06:45:53.243Z,35.34
2023-02-04T06:46:53.165Z,34.70
2023-02-04T06:47:53.163Z,34.70
2023-02-04T06:48:53.163Z,35.23
2023-02-04T06:49:53.145Z,35.77
2023-02-04T06:50:53.120Z,35.88
2023-02-04T06:51:53.113Z,35.23
2023-02-04T06:52:53.092Z,36.09
2023-02-04T06:53:53.101Z,36.31
2023-02-04T06:54:53.066Z,35.13
2023-02-04T06:55:54.257Z,35.13
2023-02-04T06:56:53.052Z,35.02
2023-02-04T06:57:53.836Z,34.91
2023-02-04T06:58:53.053Z,35.34
2023-02-04T06:59:53.003Z,35.66
2023-02-04T07:00:53.804Z,35.13
2023-02-04T07:01:53.935Z,35.02
2023-02-04T07:02:53.035Z,34.91
2023-02-04T07:03:52.989Z,35.77
2023-02-04T07:04:52.964Z,35.77
2023-02-04T07:05:53.905Z,35.88
2023-02-04T07:06:53.714Z,36.09
2023-02-04T07:07:52.906Z,36.20
2023-02-04T07:08:53.859Z,36.09
2023-02-04T07:09:52.888Z,35.99
2023-02-04T07:10:52.875Z,35.77
2023-02-04T07:11:52.874Z,35.99
2023-02-04T07:12:52.871Z,36.42
2023-02-04T07:13:52.857Z,35.23
2023-02-04T07:14:52.819Z,34.91
2023-02-04T07:15:52.898Z,35.34
2023-02-04T07:16:52.797Z,35.13
2023-02-04T07:17:52.788Z,35.02
2023-02-04T07:18:52.779Z,34.80
2023-02-04T07:19:52.775Z,34.70
2023-02-04T07:20:53.721Z,35.02
2023-02-04T07:21:52.748Z,35.02
2023-02-04T07:22:52.736Z,35.77
2023-02-04T07:23:53.678Z,35.88
2023-02-04T07:24:52.704Z,36.31
2023-02-04T07:25:52.699Z,35.77
2023-02-04T07:26:53.629Z,35.88
2023-02-04T07:27:52.706Z,35.02
2023-02-04T07:28:52.659Z,35.45
2023-02-04T07:29:52.640Z,35.88
2023-02-04T07:30:52.747Z,35.66
2023-02-04T07:31:52.721Z,34.80
2023-02-04T07:32:52.608Z,35.77
2023-02-04T07:33:52.631Z,36.20
2023-02-04T07:34:52.592Z,35.99
2023-02-04T07:35:52.573Z,35.77
2023-02-04T07:36:52.599Z,35.02
2023-02-04T07:37:52.552Z,36.20
2023-02-04T07:38:52.536Z,36.09
2023-02-04T07:39:52.526Z,35.45
2023-02-04T07:40:52.496Z,35.88
2023-02-04T07:41:52.492Z,34.70
2023-02-04T07:42:52.475Z,35.77
2023-02-04T07:43:52.482Z,34.70
2023-02-04T07:44:52.455Z,34.70
2023-02-04T07:45:52.446Z,35.99
2023-02-04T07:46:52.434Z,36.20
2023-02-04T07:47:52.441Z,35.77
2023-02-04T07:48:52.432Z,34.80
2023-02-04T07:49:52.392Z,35.23
2023-02-04T07:50:52.385Z,35.99
2023-02-04T07:51:52.389Z,35.02
2023-02-04T07:52:52.354Z,34.91
2023-02-04T07:53:52.350Z,34.70
2023-02-04T07:54:52.336Z,36.20
2023-02-04T07:55:52.335Z,34.80
2023-02-04T07:56:52.335Z,34.91
2023-02-04T07:57:52.293Z,35.23
2023-02-04T07:58:52.287Z,35.23
2023-02-04T07:59:52.271Z,34.91
2023-02-04T08:00:52.259Z,34.59
2023-02-04T08:01:52.297Z,35.02
2023-02-04T08:02:52.272Z,35.02
2023-02-04T08:03:52.235Z,35.23
2023-02-04T08:04:52.210Z,36.42
2023-02-04T08:05:52.200Z,36.09
2023-02-04T08:06:52.196Z,34.70
2023-02-04T08:07:52.172Z,35.34
2023-02-04T08:08:52.152Z,35.99
2023-02-04T08:09:52.170Z,35.13
2023-02-04T08:10:52.142Z,34.38
2023-02-04T08:11:52.131Z,34.59
2023-02-04T08:12:52.101Z,35.88
2023-02-04T08:13:52.099Z,35.02
2023-02-04T08:14:52.081Z,35.77
2023-02-04T08:15:52.100Z,35.66
2023-02-04T08:16:52.061Z,34.70
2023-02-04T08:17:52.277Z,34.38
2023-02-04T08:18:52.041Z,35.02
2023-02-04T08:19:52.020Z,35.88
2023-02-04T08:20:52.011Z,34.70
2023-02-04T08:21:51.994Z,35.02
2023-02-04T08:22:51.986Z,34.38
2023-02-04T08:23:52.236Z,35.23
2023-02-04T08:24:51.983Z,34.70
2023-02-04T08:25:51.948Z,34.48
2023-02-04T08:26:51.942Z,34.80
2023-02-04T08:27:51.986Z,34.38
2023-02-04T08:28:51.908Z,34.70
2023-02-04T08:29:51.898Z,34.48
2023-02-04T08:30:51.910Z,35.23
2023-02-04T08:31:51.989Z,34.38
2023-02-04T08:32:51.868Z,34.16
2023-02-04T08:33:51.842Z,34.16
2023-02-04T08:34:51.847Z,35.45
2023-02-04T08:35:51.833Z,34.48
2023-02-04T08:36:51.811Z,35.34
2023-02-04T08:37:51.799Z,35.45
2023-02-04T08:38:51.789Z,34.16
2023-02-04T08:39:51.779Z,35.02
2023-02-04T08:40:51.769Z,35.56
2023-02-04T08:41:52.707Z,34.59
2023-02-04T08:42:51.744Z,34.70
2023-02-04T08:43:51.755Z,34.91
2023-02-04T08:44:51.741Z,34.70
2023-02-04T08:45:51.697Z,35.13
2023-02-04T08:46:51.734Z,35.23
2023-02-04T08:47:51.679Z,35.45
2023-02-04T08:48:51.694Z,34.38
2023-02-04T08:49:51.708Z,35.34
2023-02-04T08:50:51.667Z,34.27
2023-02-04T08:51:51.644Z,34.59
2023-02-04T08:52:51.638Z,34.48
2023-02-04T08:53:51.872Z,34.80
2023-02-04T08:54:51.627Z,35.02
2023-02-04T08:55:51.592Z,34.38
2023-02-04T08:56:51.594Z,34.80
2023-02-04T08:57:51.567Z,34.70
2023-02-04T08:58:51.584Z,34.80
2023-02-04T08:59:51.564Z,34.38
2023-02-04T09:00:51.576Z,34.27
2023-02-04T09:01:51.559Z,34.59
2023-02-04T09:02:51.521Z,35.02
2023-02-04T09:03:51.501Z,34.48
2023-02-04T09:04:51.508Z,35.45
2023-02-04T09:05:51.473Z,35.13
2023-02-04T09:06:52.426Z,35.13
2023-02-04T09:07:51.453Z,35.34
2023-02-04T09:08:51.462Z,34.70
2023-02-04T09:09:51.441Z,35.13
2023-02-04T09:10:51.425Z,34.38
2023-02-04T09:11:51.414Z,34.70
2023-02-04T09:12:51.395Z,35.13
2023-02-04T09:13:51.414Z,34.70
2023-02-04T09:14:51.377Z,34.80
2023-02-04T09:15:53.017Z,34.38
2023-02-04T09:16:51.346Z,35.02
2023-02-04T09:17:51.506Z,35.02
2023-02-04T09:18:51.337Z,35.13
2023-02-04T09:19:51.321Z,34.38
2023-02-04T09:20:51.288Z,34.27
2023-02-04T09:21:51.292Z,34.27
2023-02-04T09:22:51.274Z,34.80
2023-02-04T09:23:51.261Z,34.59
2023-02-04T09:24:51.266Z,34.59
2023-02-04T09:25:51.256Z,34.27
2023-02-04T09:26:51.237Z,34.48
2023-02-04T09:27:51.464Z,34.59
2023-02-04T09:28:51.202Z,34.70
2023-02-04T09:29:51.184Z,34.80
2023-02-04T09:30:51.213Z,33.84
2023-02-04T09:31:51.238Z,34.38
2023-02-04T09:32:51.154Z,35.23
2023-02-04T09:33:51.131Z,33.52
2023-02-04T09:34:51.136Z,33.62
2023-02-04T09:35:51.117Z,34.27
2023-02-04T09:36:51.098Z,34.59
2023-02-04T09:37:51.084Z,34.59
2023-02-04T09:38:51.070Z,33.84
2023-02-04T09:39:51.060Z,34.80
2023-02-04T09:40:51.077Z,34.70
2023-02-04T09:41:51.980Z,34.16
2023-02-04T09:42:51.034Z,34.27
2023-02-04T09:43:51.009Z,33.84
2023-02-04T09:44:51.000Z,34.59
2023-02-04T09:45:51.047Z,35.13
2023-02-04T09:46:50.974Z,34.59
2023-02-04T09:47:50.959Z,34.80
2023-02-04T09:48:50.945Z,35.02
2023-02-04T09:49:50.933Z,35.23
2023-02-04T09:50:50.926Z,34.38
2023-02-04T09:51:50.914Z,34.48
2023-02-04T09:52:50.891Z,34.91
2023-02-04T09:53:50.878Z,34.59
2023-02-04T09:54:50.875Z,35.23
2023-02-04T09:55:50.843Z,35.02
2023-02-04T09:56:50.834Z,35.13
2023-02-04T09:57:50.821Z,33.52
2023-02-04T09:58:50.815Z,34.70
2023-02-04T09:59:50.799Z,35.02
2023-02-04T10:00:50.801Z,33.52
2023-02-04T10:01:50.757Z,34.80
2023-02-04T10:02:50.746Z,35.02
2023-02-04T10:03:50.836Z,34.27
2023-02-04T10:04:50.756Z,34.91
2023-02-04T10:05:50.709Z,34.80
2023-02-04T10:06:50.694Z,34.48
2023-02-04T10:07:50.682Z,34.80
2023-02-04T10:08:50.902Z,35.13
2023-02-04T10:09:50.679Z,34.38
2023-02-04T10:10:50.672Z,33.30
2023-02-04T10:11:50.657Z,33.84
2023-02-04T10:12:50.619Z,34.80
2023-02-04T10:13:50.601Z,33.41
2023-02-04T10:14:50.592Z,33.73
2023-02-04T10:15:50.571Z,33.73
2023-02-04T10:16:50.595Z,35.02
2023-02-04T10:17:50.543Z,34.80
2023-02-04T10:18:50.544Z,34.38
2023-02-04T10:19:50.528Z,34.59
2023-02-04T10:20:50.516Z,34.91
2023-02-04T10:21:50.513Z,34.59
2023-02-04T10:22:50.499Z,33.62
2023-02-04T10:23:50.468Z,33.41
2023-02-04T10:24:50.471Z,34.70
2023-02-04T10:25:50.450Z,34.59
2023-02-04T10:26:50.443Z,34.70
2023-02-04T10:27:50.457Z,34.48
2023-02-04T10:28:50.412Z,35.02
2023-02-04T10:29:50.404Z,34.59
2023-02-04T10:30:50.471Z,34.91
2023-02-04T10:31:50.501Z,33.84
2023-02-04T10:32:50.369Z,34.91
2023-02-04T10:33:50.346Z,35.45
2023-02-04T10:34:50.359Z,34.38
2023-02-04T10:35:50.318Z,35.13
2023-02-04T10:36:50.313Z,33.73
2023-02-04T10:37:50.309Z,34.38
2023-02-04T10:38:50.290Z,34.59
2023-02-04T10:39:50.281Z,34.80
2023-02-04T10:40:50.263Z,33.62
2023-02-04T10:41:50.250Z,33.62
2023-02-04T10:42:50.244Z,34.38
2023-02-04T10:43:50.235Z,33.62
2023-02-04T10:44:50.235Z,33.62
2023-02-04T10:45:50.233Z,33.62
2023-02-04T10:46:50.192Z,33.52
2023-02-04T10:47:50.173Z,33.52
2023-02-04T10:48:50.168Z,34.80
2023-02-04T10:49:50.159Z,34.80
2023-02-04T10:50:50.135Z,33.41
2023-02-04T10:51:50.126Z,33.52
2023-02-04T10:52:50.114Z,35.02
2023-02-04T10:53:50.097Z,34.80
2023-02-04T10:54:50.157Z,35.02
2023-02-04T10:55:50.104Z,33.73
2023-02-04T10:56:50.054Z,33.52
2023-02-04T10:57:50.045Z,33.30
2023-02-04T10:58:50.041Z,33.62
2023-02-04T10:59:50.021Z,33.62
2023-02-04T11:00:50.017Z,33.84
2023-02-04T11:01:50.013Z,35.23
2023-02-04T11:02:49.990Z,33.52
2023-02-04T11:03:52.309Z,33.62
2023-02-04T11:04:49.963Z,34.48
2023-02-04T11:05:49.957Z,34.48
2023-02-04T11:06:49.941Z,34.70
2023-02-04T11:07:49.924Z,33.52
2023-02-04T11:08:50.919Z,33.62
2023-02-04T11:09:49.888Z,34.70
2023-02-04T11:10:49.916Z,35.02
2023-02-04T11:11:49.859Z,34.91
2023-02-04T11:12:49.875Z,34.70
2023-02-04T11:13:49.851Z,34.38
2023-02-04T11:14:49.831Z,33.62
2023-02-04T11:15:50.912Z,33.41
2023-02-04T11:16:49.801Z,34.70
2023-02-04T11:17:49.797Z,34.91
2023-02-04T11:18:49.780Z,34.38
2023-02-04T11:19:49.761Z,35.13
2023-02-04T11:20:49.766Z,34.38
2023-02-04T11:21:49.756Z,33.62
2023-02-04T11:22:49.732Z,35.23
2023-02-04T11:23:49.702Z,34.38
2023-02-04T11:24:49.694Z,33.73
2023-02-04T11:25:49.689Z,35.02
2023-02-04T11:26:51.577Z,34.48
2023-02-04T11:27:49.693Z,34.48
2023-02-04T11:28:49.649Z,35.13
2023-02-04T11:29:49.623Z,34.80
2023-02-04T11:30:49.706Z,34.59
2023-02-04T11:31:49.762Z,34.59
2023-02-04T11:32:49.627Z,35.13
2023-02-04T11:33:49.589Z,34.80
2023-02-04T11:34:49.580Z,35.34
2023-02-04T11:35:49.559Z,34.48
2023-02-04T11:36:49.544Z,35.13
2023-02-04T11:37:49.537Z,35.45
2023-02-04T11:38:49.513Z,35.23
2023-02-04T11:39:49.495Z,35.13
2023-02-04T11:40:49.494Z,34.91
2023-02-04T11:41:49.498Z,35.34
2023-02-04T11:42:49.452Z,35.02
2023-02-04T11:43:49.437Z,35.13
2023-02-04T11:44:49.431Z,34.91
2023-02-04T11:45:49.451Z,35.13
2023-02-04T11:46:49.419Z,34.59
2023-02-04T11:47:49.382Z,33.62
2023-02-04T11:48:49.382Z,33.73
2023-02-04T11:49:49.363Z,33.73
2023-02-04T11:50:49.366Z,34.91
2023-02-04T11:51:49.349Z,33.84
2023-02-04T11:52:49.327Z,35.02
2023-02-04T11:53:49.313Z,33.52
2023-02-04T11:54:49.321Z,35.23
2023-02-04T11:55:49.295Z,34.38
2023-02-04T11:56:49.275Z,35.13
2023-02-04T11:57:49.256Z,34.70
2023-02-04T11:58:49.254Z,34.48
2023-02-04T11:59:49.246Z,35.45
2023-02-04T12:00:49.247Z,35.23
2023-02-04T12:01:49.196Z,33.73
2023-02-04T12:02:49.269Z,33.62
2023-02-04T12:03:49.211Z,34.80
2023-02-04T12:04:49.169Z,33.52
2023-02-04T12:05:49.149Z,33.41
2023-02-04T12:06:49.146Z,34.80
2023-02-04T12:07:49.126Z,33.41
2023-02-04T12:08:49.122Z,34.70
2023-02-04T12:09:49.102Z,35.45
2023-02-04T12:10:49.118Z,35.02
2023-02-04T12:11:49.080Z,35.02
2023-02-04T12:12:49.067Z,35.23
2023-02-04T12:13:49.051Z,34.38
2023-02-04T12:14:49.077Z,35.23
2023-02-04T12:15:49.054Z,33.52
2023-02-04T12:16:49.035Z,34.70
2023-02-04T12:17:49.001Z,34.80
2023-02-04T12:18:48.984Z,34.48
2023-02-04T12:19:48.961Z,34.80
2023-02-04T12:20:48.980Z,34.91
2023-02-04T12:21:48.963Z,33.09
2023-02-04T12:22:48.929Z,34.80
2023-02-04T12:23:48.923Z,34.80
2023-02-04T12:24:48.912Z,33.62
2023-02-04T12:25:48.896Z,33.62
2023-02-04T12:26:48.904Z,33.52
2023-02-04T12:27:48.874Z,34.80
2023-02-04T12:28:48.849Z,34.70
2023-02-04T12:29:48.828Z,34.48
2023-02-04T12:30:49.075Z,33.84
2023-02-04T12:31:48.979Z,33.41
2023-02-04T12:32:48.792Z,33.62
2023-02-04T12:33:48.797Z,33.09
2023-02-04T12:34:48.762Z,33.73
2023-02-04T12:35:48.766Z,34.91
2023-02-04T12:36:48.757Z,35.02
2023-02-04T12:37:48.738Z,33.62
2023-02-04T12:38:48.722Z,35.13
2023-02-04T12:39:48.710Z,33.62
2023-02-04T12:40:48.691Z,34.48
2023-02-04T12:41:48.698Z,34.70
2023-02-04T12:42:48.684Z,35.13
2023-02-04T12:43:48.672Z,34.70
2023-02-04T12:44:48.654Z,33.62
2023-02-04T12:45:48.624Z,34.91
2023-02-04T12:46:48.678Z,34.38
2023-02-04T12:47:48.630Z,33.62
2023-02-04T12:48:48.612Z,33.95
2023-02-04T12:49:48.583Z,34.59
2023-02-04T12:50:48.563Z,34.80
2023-02-04T12:51:48.572Z,34.80
2023-02-04T12:52:48.543Z,35.02
2023-02-04T12:53:48.550Z,33.62
2023-02-04T12:54:48.516Z,33.41
2023-02-04T12:55:48.574Z,33.84
2023-02-04T12:56:48.530Z,33.62
2023-02-04T12:57:48.483Z,33.84
2023-02-04T12:58:48.473Z,33.41
2023-02-04T12:59:48.472Z,33.62
2023-02-04T13:00:48.514Z,33.62
2023-02-04T13:01:48.487Z,34.59
2023-02-04T13:02:48.404Z,35.02
2023-02-04T13:03:48.395Z,34.59
2023-02-04T13:04:48.388Z,33.41
2023-02-04T13:05:48.376Z,33.52
2023-02-04T13:06:48.362Z,34.70
2023-02-04T13:07:48.346Z,33.52
2023-02-04T13:08:48.331Z,34.59